createdAt,value
2018-06-05T00:00:52.847Z,995.46
2018-06-05T00:01:52.845Z,995.46
2018-06-05T00:03:13.859Z,995.41
2018-06-05T00:03:52.852Z,995.46
2018-06-05T00:04:52.861Z,995.40
2018-06-05T00:05:52.862Z,995.42
2018-06-05T00:06:52.869Z,995.38
2018-06-05T00:07:52.884Z,995.40
2018-06-05T00:09:13.944Z,995.42
2018-06-05T00:09:52.878Z,995.39
2018-06-05T00:10:52.883Z,995.38
2018-06-05T00:11:52.881Z,995.37
2018-06-05T00:12:52.888Z,995.34
2018-06-05T00:13:52.895Z,995.38
2018-06-05T00:15:13.906Z,995.32
2018-06-05T00:15:52.899Z,995.33
2018-06-05T00:16:52.904Z,995.34
2018-06-05T00:17:52.920Z,995.38
2018-06-05T00:18:53.549Z,995.36
2018-06-05T00:19:52.917Z,995.36
2018-06-05T00:21:13.927Z,995.37
2018-06-05T00:21:52.919Z,995.37
2018-06-05T00:22:52.922Z,995.40
2018-06-05T00:23:52.926Z,995.37
2018-06-05T00:24:52.929Z,995.36
2018-06-05T00:25:52.937Z,995.36
2018-06-05T00:27:13.945Z,995.36
2018-06-05T00:27:52.941Z,995.33
2018-06-05T00:28:52.949Z,995.34
2018-06-05T00:29:52.950Z,995.31
2018-06-05T00:30:52.956Z,995.35
2018-06-05T00:31:52.957Z,995.36
2018-06-05T00:33:13.970Z,995.35
2018-06-05T00:33:52.962Z,995.34
2018-06-05T00:34:52.966Z,995.35
2018-06-05T00:35:52.965Z,995.36
2018-06-05T00:36:52.970Z,995.36
2018-06-05T00:37:52.975Z,995.36
2018-06-05T00:39:14.046Z,995.36
2018-06-05T00:39:52.981Z,995.35
2018-06-05T00:40:52.984Z,995.31
2018-06-05T00:41:52.990Z,995.29
2018-06-05T00:42:52.996Z,995.30
2018-06-05T00:43:53.002Z,995.32
2018-06-05T00:45:14.052Z,995.33
2018-06-05T00:45:53.016Z,995.32
2018-06-05T00:46:53.004Z,995.37
2018-06-05T00:47:53.007Z,995.41
2018-06-05T00:48:53.020Z,995.37
2018-06-05T00:49:53.927Z,995.35
2018-06-05T00:51:14.031Z,995.39
2018-06-05T00:51:53.022Z,995.41
2018-06-05T00:52:53.028Z,995.43
2018-06-05T00:53:53.030Z,995.41
2018-06-05T00:54:53.030Z,995.41
2018-06-05T00:55:53.037Z,995.42
2018-06-05T00:57:14.060Z,995.40
2018-06-05T00:57:53.050Z,995.44
2018-06-05T00:58:53.045Z,995.43
2018-06-05T00:59:53.048Z,995.38
2018-06-05T01:00:53.055Z,995.43
2018-06-05T01:01:53.057Z,995.39
2018-06-05T01:03:14.077Z,995.39
2018-06-05T01:03:53.062Z,995.38
2018-06-05T01:04:53.065Z,995.40
2018-06-05T01:05:53.077Z,995.38
2018-06-05T01:06:53.078Z,995.37
2018-06-05T01:07:53.081Z,995.36
2018-06-05T01:09:14.147Z,995.36
2018-06-05T01:09:53.081Z,995.36
2018-06-05T01:10:53.087Z,995.38
2018-06-05T01:11:53.092Z,995.36
2018-06-05T01:12:53.112Z,995.34
2018-06-05T01:13:53.096Z,995.31
2018-06-05T01:15:14.113Z,995.32
2018-06-05T01:15:53.104Z,995.30
2018-06-05T01:16:53.110Z,995.31
2018-06-05T01:17:53.113Z,995.29
2018-06-05T01:18:53.116Z,995.31
2018-06-05T01:19:53.120Z,995.30
2018-06-05T01:21:14.135Z,995.38
2018-06-05T01:21:53.125Z,995.34
2018-06-05T01:22:53.123Z,995.34
2018-06-05T01:23:53.135Z,995.32
2018-06-05T01:24:53.134Z,995.34
2018-06-05T01:25:53.136Z,995.27
2018-06-05T01:27:14.151Z,995.31
2018-06-05T01:27:53.271Z,995.30
2018-06-05T01:28:53.147Z,995.31
2018-06-05T01:29:53.154Z,995.31
2018-06-05T01:30:53.151Z,995.32
2018-06-05T01:31:53.160Z,995.33
2018-06-05T01:33:14.176Z,995.36
2018-06-05T01:33:53.162Z,995.36
2018-06-05T01:34:53.164Z,995.39
2018-06-05T01:35:53.170Z,995.39
2018-06-05T01:36:53.173Z,995.40
2018-06-05T01:37:53.187Z,995.39
2018-06-05T01:39:14.247Z,995.39
2018-06-05T01:39:53.189Z,995.41
2018-06-05T01:40:53.186Z,995.41
2018-06-05T01:41:53.193Z,995.41
2018-06-05T01:42:53.201Z,995.39
2018-06-05T01:43:53.203Z,995.40
2018-06-05T01:45:14.211Z,995.42
2018-06-05T01:45:53.203Z,995.44
2018-06-05T01:46:53.206Z,995.43
2018-06-05T01:47:53.217Z,995.47
2018-06-05T01:48:53.210Z,995.46
2018-06-05T01:49:53.218Z,995.50
2018-06-05T01:51:14.225Z,995.48
2018-06-05T01:51:53.220Z,995.49
2018-06-05T01:52:53.224Z,995.51
2018-06-05T01:53:53.245Z,995.49
2018-06-05T01:54:53.229Z,995.46
2018-06-05T01:55:53.236Z,995.49
2018-06-05T01:57:14.295Z,995.45
2018-06-05T01:57:53.304Z,995.47
2018-06-05T01:58:53.242Z,995.47
2018-06-05T01:59:53.248Z,995.51
2018-06-05T02:00:53.256Z,995.50
2018-06-05T02:01:53.251Z,995.50
2018-06-05T02:03:14.270Z,995.50
2018-06-05T02:03:53.257Z,995.48
2018-06-05T02:04:53.263Z,995.52
2018-06-05T02:05:53.265Z,995.46
2018-06-05T02:06:53.268Z,995.47
2018-06-05T02:07:53.289Z,995.48
2018-06-05T02:09:14.352Z,995.45
2018-06-05T02:09:53.282Z,995.48
2018-06-05T02:10:53.282Z,995.46
2018-06-05T02:11:53.283Z,995.46
2018-06-05T02:12:53.337Z,995.42
2018-06-05T02:13:53.301Z,995.42
2018-06-05T02:15:14.303Z,995.44
2018-06-05T02:15:53.301Z,995.45
2018-06-05T02:16:53.304Z,995.44
2018-06-05T02:17:53.312Z,995.43
2018-06-05T02:18:53.308Z,995.43
2018-06-05T02:19:53.305Z,995.45
2018-06-05T02:21:14.328Z,995.48
2018-06-05T02:21:53.316Z,995.44
2018-06-05T02:22:53.319Z,995.49
2018-06-05T02:23:53.320Z,995.49
2018-06-05T02:24:53.321Z,995.48
2018-06-05T02:25:53.328Z,995.48
2018-06-05T02:27:14.353Z,995.48
2018-06-05T02:27:53.338Z,995.48
2018-06-05T02:28:53.338Z,995.52
2018-06-05T02:29:53.341Z,995.49
2018-06-05T02:30:53.364Z,995.50
2018-06-05T02:31:53.360Z,995.50
2018-06-05T02:33:15.241Z,995.51
2018-06-05T02:33:53.353Z,995.52
2018-06-05T02:34:53.358Z,995.52
2018-06-05T02:35:53.358Z,995.52
2018-06-05T02:36:53.364Z,995.52
2018-06-05T02:37:53.368Z,995.49
2018-06-05T02:39:14.456Z,995.50
2018-06-05T02:39:53.553Z,995.48
2018-06-05T02:40:53.377Z,995.53
2018-06-05T02:41:53.377Z,995.56
2018-06-05T02:42:53.391Z,995.56
2018-06-05T02:43:53.385Z,995.57
2018-06-05T02:45:14.405Z,995.58
2018-06-05T02:45:53.395Z,995.56
2018-06-05T02:46:53.408Z,995.58
2018-06-05T02:47:53.400Z,995.58
2018-06-05T02:48:53.399Z,995.57
2018-06-05T02:49:53.400Z,995.59
2018-06-05T02:51:14.421Z,995.60
2018-06-05T02:51:53.409Z,995.61
2018-06-05T02:52:53.486Z,995.59
2018-06-05T02:53:53.414Z,995.59
2018-06-05T02:54:53.423Z,995.56
2018-06-05T02:55:53.420Z,995.62
2018-06-05T02:57:14.438Z,995.64
2018-06-05T02:57:53.436Z,995.64
2018-06-05T02:58:53.426Z,995.70
2018-06-05T02:59:53.431Z,995.66
2018-06-05T03:00:53.441Z,995.67
2018-06-05T03:01:53.435Z,995.69
2018-06-05T03:03:14.447Z,995.71
2018-06-05T03:03:53.448Z,995.72
2018-06-05T03:04:53.443Z,995.72
2018-06-05T03:05:53.457Z,995.73
2018-06-05T03:06:53.446Z,995.70
2018-06-05T03:07:53.464Z,995.73
2018-06-05T03:09:14.555Z,995.70
2018-06-05T03:09:53.460Z,995.76
2018-06-05T03:10:53.458Z,995.75
2018-06-05T03:11:53.464Z,995.81
2018-06-05T03:12:53.467Z,995.78
2018-06-05T03:13:53.463Z,995.76
2018-06-05T03:15:14.537Z,995.74
2018-06-05T03:15:53.472Z,995.76
2018-06-05T03:16:53.474Z,995.75
2018-06-05T03:17:53.478Z,995.76
2018-06-05T03:18:53.479Z,995.76
2018-06-05T03:19:53.493Z,995.77
2018-06-05T03:21:14.492Z,995.78
2018-06-05T03:21:53.484Z,995.81
2018-06-05T03:22:53.489Z,995.79
2018-06-05T03:23:53.940Z,995.86
2018-06-05T03:24:53.501Z,995.87
2018-06-05T03:25:53.496Z,995.87
2018-06-05T03:27:14.512Z,995.87
2018-06-05T03:27:53.498Z,995.86
2018-06-05T03:28:53.501Z,995.89
2018-06-05T03:29:53.504Z,995.88
2018-06-05T03:30:53.504Z,995.86
2018-06-05T03:31:53.511Z,995.91
2018-06-05T03:33:14.520Z,995.87
2018-06-05T03:33:53.518Z,995.90
2018-06-05T03:34:53.514Z,995.88
2018-06-05T03:35:53.521Z,995.93
2018-06-05T03:36:53.521Z,995.91
2018-06-05T03:37:53.524Z,995.96
2018-06-05T03:39:14.558Z,995.99
2018-06-05T03:39:53.530Z,996.00
2018-06-05T03:40:53.543Z,995.99
2018-06-05T03:41:53.532Z,996.02
2018-06-05T03:42:53.543Z,996.01
2018-06-05T03:43:53.535Z,996.02
2018-06-05T03:45:14.545Z,995.98
2018-06-05T03:45:53.540Z,996.01
2018-06-05T03:46:53.543Z,996.00
2018-06-05T03:47:53.542Z,996.02
2018-06-05T03:48:53.544Z,996.03
2018-06-05T03:49:53.549Z,996.02
2018-06-05T03:51:14.558Z,996.06
2018-06-05T03:51:53.551Z,996.11
2018-06-05T03:52:53.553Z,996.10
2018-06-05T03:53:53.559Z,996.10
2018-06-05T03:54:54.276Z,996.11
2018-06-05T03:55:53.563Z,996.13
2018-06-05T03:57:14.636Z,996.10
2018-06-05T03:57:53.576Z,996.12
2018-06-05T03:58:53.564Z,996.11
2018-06-05T03:59:53.568Z,996.06
2018-06-05T04:00:53.571Z,996.08
2018-06-05T04:01:53.572Z,996.12
2018-06-05T04:03:14.583Z,996.13
2018-06-05T04:03:53.576Z,996.12
2018-06-05T04:04:53.577Z,996.13
2018-06-05T04:05:53.583Z,996.18
2018-06-05T04:06:53.586Z,996.16
2018-06-05T04:07:53.616Z,996.21
2018-06-05T04:09:14.653Z,996.21
2018-06-05T04:09:53.587Z,996.20
2018-06-05T04:10:53.590Z,996.20
2018-06-05T04:11:53.590Z,996.23
2018-06-05T04:12:53.596Z,996.22
2018-06-05T04:13:53.594Z,996.27
2018-06-05T04:15:14.610Z,996.27
2018-06-05T04:15:53.601Z,996.30
2018-06-05T04:16:53.607Z,996.27
2018-06-05T04:17:53.616Z,996.30
2018-06-05T04:18:53.606Z,996.30
2018-06-05T04:19:53.611Z,996.34
2018-06-05T04:21:14.619Z,996.31
2018-06-05T04:21:53.616Z,996.34
2018-06-05T04:22:53.622Z,996.30
2018-06-05T04:23:53.616Z,996.30
2018-06-05T04:24:53.620Z,996.30
2018-06-05T04:25:54.600Z,996.30
2018-06-05T04:27:14.665Z,996.31
2018-06-05T04:27:53.630Z,996.34
2018-06-05T04:28:53.625Z,996.37
2018-06-05T04:29:53.632Z,996.38
2018-06-05T04:30:53.629Z,996.41
2018-06-05T04:31:53.645Z,996.41
2018-06-05T04:33:14.646Z,996.43
2018-06-05T04:33:53.640Z,996.40
2018-06-05T04:34:53.638Z,996.43
2018-06-05T04:35:53.641Z,996.44
2018-06-05T04:36:53.649Z,996.43
2018-06-05T04:37:53.646Z,996.44
2018-06-05T04:39:15.677Z,996.39
2018-06-05T04:39:53.648Z,996.42
2018-06-05T04:40:53.651Z,996.47
2018-06-05T04:41:53.658Z,996.44
2018-06-05T04:42:53.655Z,996.47
2018-06-05T04:43:53.659Z,996.44
2018-06-05T04:45:14.669Z,996.47
2018-06-05T04:45:53.664Z,996.45
2018-06-05T04:46:53.666Z,996.44
2018-06-05T04:47:53.670Z,996.44
2018-06-05T04:48:53.668Z,996.40
2018-06-05T04:49:53.687Z,996.40
2018-06-05T04:51:14.683Z,996.43
2018-06-05T04:51:53.681Z,996.42
2018-06-05T04:52:53.680Z,996.44
2018-06-05T04:53:53.682Z,996.46
2018-06-05T04:54:53.682Z,996.45
2018-06-05T04:55:53.684Z,996.45
2018-06-05T04:57:14.704Z,996.47
2018-06-05T04:57:53.689Z,996.51
2018-06-05T04:58:53.691Z,996.53
2018-06-05T04:59:53.693Z,996.55
2018-06-05T05:00:53.702Z,996.57
2018-06-05T05:01:53.701Z,996.55
2018-06-05T05:03:14.707Z,996.57
2018-06-05T05:03:53.703Z,996.58
2018-06-05T05:04:53.701Z,996.58
2018-06-05T05:05:53.706Z,996.56
2018-06-05T05:06:53.705Z,996.56
2018-06-05T05:07:53.725Z,996.60
2018-06-05T05:09:14.754Z,996.60
2018-06-05T05:09:53.711Z,996.63
2018-06-05T05:10:53.714Z,996.62
2018-06-05T05:11:53.720Z,996.69
2018-06-05T05:12:53.795Z,996.65
2018-06-05T05:13:53.721Z,996.65
2018-06-05T05:15:14.732Z,996.69
2018-06-05T05:15:53.731Z,996.68
2018-06-05T05:16:53.726Z,996.71
2018-06-05T05:17:53.727Z,996.70
2018-06-05T05:18:53.732Z,996.74
2018-06-05T05:19:53.733Z,996.75
2018-06-05T05:21:14.748Z,996.72
2018-06-05T05:21:53.739Z,996.75
2018-06-05T05:22:53.739Z,996.77
2018-06-05T05:23:53.742Z,996.77
2018-06-05T05:24:53.749Z,996.77
2018-06-05T05:25:53.752Z,996.79
2018-06-05T05:27:14.763Z,996.82
2018-06-05T05:27:53.777Z,996.81
2018-06-05T05:28:53.754Z,996.83
2018-06-05T05:29:53.757Z,996.84
2018-06-05T05:30:53.764Z,996.85
2018-06-05T05:31:53.765Z,996.83
2018-06-05T05:33:14.774Z,996.83
2018-06-05T05:33:53.765Z,996.84
2018-06-05T05:34:53.767Z,996.83
2018-06-05T05:35:53.819Z,996.84
2018-06-05T05:36:53.772Z,996.83
2018-06-05T05:37:53.779Z,996.82
2018-06-05T05:39:14.860Z,996.81
2018-06-05T05:39:53.782Z,996.82
2018-06-05T05:40:53.785Z,996.83
2018-06-05T05:41:53.795Z,996.85
2018-06-05T05:42:53.790Z,996.86
2018-06-05T05:43:53.786Z,996.85
2018-06-05T05:45:14.795Z,996.88
2018-06-05T05:45:53.793Z,996.89
2018-06-05T05:46:53.799Z,996.88
2018-06-05T05:47:53.800Z,996.84
2018-06-05T05:48:53.802Z,996.85
2018-06-05T05:49:53.801Z,996.81
2018-06-05T05:51:14.816Z,996.82
2018-06-05T05:51:53.844Z,996.83
2018-06-05T05:52:53.811Z,996.82
2018-06-05T05:53:53.812Z,996.82
2018-06-05T05:54:53.889Z,996.80
2018-06-05T05:55:53.825Z,996.85
2018-06-05T05:57:14.840Z,996.81
2018-06-05T05:57:53.823Z,996.85
2018-06-05T05:58:53.827Z,996.82
2018-06-05T05:59:53.826Z,996.88
2018-06-05T06:00:53.851Z,996.80
2018-06-05T06:01:53.832Z,996.86
2018-06-05T06:03:14.843Z,996.83
2018-06-05T06:03:53.838Z,996.88
2018-06-05T06:04:53.945Z,996.91
2018-06-05T06:05:53.840Z,996.93
2018-06-05T06:06:53.858Z,996.94
2018-06-05T06:07:53.849Z,996.94
2018-06-05T06:09:15.954Z,996.94
2018-06-05T06:09:53.850Z,996.95
2018-06-05T06:10:53.902Z,996.98
2018-06-05T06:11:53.887Z,996.98
2018-06-05T06:12:53.861Z,996.94
2018-06-05T06:13:53.861Z,996.97
2018-06-05T06:15:14.876Z,996.94
2018-06-05T06:15:53.867Z,996.99
2018-06-05T06:16:53.896Z,996.98
2018-06-05T06:17:54.003Z,996.96
2018-06-05T06:18:53.877Z,996.98
2018-06-05T06:19:53.879Z,997.02
2018-06-05T06:21:14.893Z,997.01
2018-06-05T06:21:53.883Z,997.02
2018-06-05T06:22:53.882Z,996.99
2018-06-05T06:23:53.891Z,996.99
2018-06-05T06:24:53.893Z,996.98
2018-06-05T06:25:53.903Z,996.99
2018-06-05T06:27:14.903Z,997.00
2018-06-05T06:27:53.898Z,997.01
2018-06-05T06:28:54.514Z,997.00
2018-06-05T06:29:53.906Z,997.04
2018-06-05T06:30:53.931Z,996.98
2018-06-05T06:31:53.909Z,997.04
2018-06-05T06:33:14.920Z,997.01
2018-06-05T06:33:53.914Z,996.99
2018-06-05T06:34:54.166Z,997.01
2018-06-05T06:35:53.947Z,997.00
2018-06-05T06:36:53.920Z,996.99
2018-06-05T06:37:54.250Z,997.02
2018-06-05T06:39:14.956Z,997.01
2018-06-05T06:39:53.950Z,996.99
2018-06-05T06:40:53.941Z,997.03
2018-06-05T06:41:53.932Z,997.00
2018-06-05T06:42:53.936Z,996.98
2018-06-05T06:43:54.205Z,997.00
2018-06-05T06:45:14.946Z,997.04
2018-06-05T06:45:53.939Z,997.00
2018-06-05T06:46:53.948Z,997.00
2018-06-05T06:47:53.956Z,996.98
2018-06-05T06:48:54.020Z,997.04
2018-06-05T06:49:54.284Z,997.04
2018-06-05T06:51:14.970Z,997.00
2018-06-05T06:51:53.961Z,997.03
2018-06-05T06:52:54.856Z,997.04
2018-06-05T06:53:53.962Z,997.04
2018-06-05T06:54:53.969Z,997.05
2018-06-05T06:55:53.971Z,997.05
2018-06-05T06:57:14.979Z,997.05
2018-06-05T06:57:53.970Z,997.02
2018-06-05T06:58:54.263Z,997.06
2018-06-05T06:59:54.825Z,997.02
2018-06-05T07:00:53.993Z,997.06
2018-06-05T07:01:53.980Z,997.04
2018-06-05T07:03:14.991Z,996.99
2018-06-05T07:03:53.988Z,997.06
2018-06-05T07:04:53.992Z,997.03
2018-06-05T07:05:53.990Z,997.00
2018-06-05T07:06:54.020Z,996.99
2018-06-05T07:07:54.176Z,997.05
2018-06-05T07:09:15.094Z,997.02
2018-06-05T07:09:54.085Z,997.02
2018-06-05T07:10:54.000Z,996.99
2018-06-05T07:11:54.006Z,997.03
2018-06-05T07:12:54.005Z,997.01
2018-06-05T07:13:54.017Z,997.03
2018-06-05T07:15:15.888Z,997.04
2018-06-05T07:15:54.034Z,997.05
2018-06-05T07:16:54.280Z,997.01
2018-06-05T07:17:54.068Z,997.01
2018-06-05T07:18:54.034Z,997.05
2018-06-05T07:19:54.036Z,997.02
2018-06-05T07:21:15.505Z,997.03
2018-06-05T07:21:54.033Z,997.03
2018-06-05T07:22:54.037Z,997.06
2018-06-05T07:23:54.065Z,997.04
2018-06-05T07:24:54.050Z,997.04
2018-06-05T07:25:54.047Z,997.07
2018-06-05T07:27:15.055Z,997.07
2018-06-05T07:27:54.539Z,997.06
2018-06-05T07:28:54.054Z,997.12
2018-06-05T07:29:54.067Z,997.14
2018-06-05T07:30:54.060Z,997.11
2018-06-05T07:31:54.059Z,997.12
2018-06-05T07:33:15.073Z,997.10
2018-06-05T07:33:54.068Z,997.07
2018-06-05T07:34:54.074Z,997.09
2018-06-05T07:35:54.066Z,997.08
2018-06-05T07:36:54.079Z,997.11
2018-06-05T07:37:54.083Z,997.14
2018-06-05T07:39:15.887Z,997.14
2018-06-05T07:39:54.852Z,997.10
2018-06-05T07:40:54.425Z,997.14
2018-06-05T07:41:54.087Z,997.16
2018-06-05T07:42:54.203Z,997.15
2018-06-05T07:43:54.091Z,997.15
2018-06-05T07:45:15.102Z,997.16
2018-06-05T07:45:54.105Z,997.17
2018-06-05T07:46:54.098Z,997.19
2018-06-05T07:47:54.110Z,997.18
2018-06-05T07:48:54.166Z,997.20
2018-06-05T07:49:54.153Z,997.21
2018-06-05T07:51:15.118Z,997.20
2018-06-05T07:51:54.111Z,997.22
2018-06-05T07:52:54.120Z,997.24
2018-06-05T07:53:54.117Z,997.25
2018-06-05T07:54:54.119Z,997.25
2018-06-05T07:55:54.122Z,997.24
2018-06-05T07:57:15.150Z,997.22
2018-06-05T07:57:54.161Z,997.19
2018-06-05T07:58:54.149Z,997.21
2018-06-05T07:59:54.133Z,997.21
2018-06-05T08:00:54.154Z,997.20
2018-06-05T08:01:54.144Z,997.22
2018-06-05T08:03:15.156Z,997.21
2018-06-05T08:03:54.532Z,997.22
2018-06-05T08:04:54.312Z,997.20
2018-06-05T08:05:54.155Z,997.20
2018-06-05T08:06:54.162Z,997.24
2018-06-05T08:07:54.164Z,997.21
2018-06-05T08:09:15.363Z,997.24
2018-06-05T08:09:54.167Z,997.27
2018-06-05T08:10:54.170Z,997.26
2018-06-05T08:11:54.226Z,997.21
2018-06-05T08:12:54.182Z,997.22
2018-06-05T08:13:54.176Z,997.24
2018-06-05T08:15:15.209Z,997.25
2018-06-05T08:15:54.192Z,997.24
2018-06-05T08:16:54.279Z,997.23
2018-06-05T08:17:54.213Z,997.22
2018-06-05T08:18:54.196Z,997.21
2018-06-05T08:19:54.212Z,997.21
2018-06-05T08:21:15.211Z,997.23
2018-06-05T08:21:54.205Z,997.25
2018-06-05T08:22:54.216Z,997.22
2018-06-05T08:23:54.208Z,997.23
2018-06-05T08:24:54.214Z,997.21
2018-06-05T08:25:54.218Z,997.17
2018-06-05T08:27:15.228Z,997.22
2018-06-05T08:27:54.224Z,997.19
2018-06-05T08:28:54.225Z,997.25
2018-06-05T08:29:54.225Z,997.22
2018-06-05T08:30:54.231Z,997.23
2018-06-05T08:31:54.237Z,997.25
2018-06-05T08:33:15.437Z,997.29
2018-06-05T08:33:54.261Z,997.27
2018-06-05T08:34:54.269Z,997.27
2018-06-05T08:35:54.285Z,997.29
2018-06-05T08:36:54.255Z,997.30
2018-06-05T08:37:54.286Z,997.32
2018-06-05T08:39:15.363Z,997.25
2018-06-05T08:39:54.282Z,997.25
2018-06-05T08:40:54.284Z,997.28
2018-06-05T08:41:54.349Z,997.26
2018-06-05T08:42:54.295Z,997.30
2018-06-05T08:43:54.334Z,997.31
2018-06-05T08:45:15.378Z,997.33
2018-06-05T08:45:54.300Z,997.28
2018-06-05T08:46:54.304Z,997.35
2018-06-05T08:47:54.288Z,997.33
2018-06-05T08:48:54.299Z,997.35
2018-06-05T08:49:54.301Z,997.34
2018-06-05T08:51:15.314Z,997.33
2018-06-05T08:51:54.341Z,997.34
2018-06-05T08:52:54.314Z,997.38
2018-06-05T08:53:54.318Z,997.39
2018-06-05T08:54:54.316Z,997.35
2018-06-05T08:55:54.323Z,997.37
2018-06-05T08:57:15.347Z,997.39
2018-06-05T08:57:54.333Z,997.37
2018-06-05T08:58:54.347Z,997.35
2018-06-05T08:59:54.674Z,997.34
2018-06-05T09:00:54.886Z,997.35
2018-06-05T09:01:54.351Z,997.33
2018-06-05T09:03:15.355Z,997.29
2018-06-05T09:03:54.347Z,997.31
2018-06-05T09:04:54.378Z,997.28
2018-06-05T09:05:54.367Z,997.24
2018-06-05T09:06:54.376Z,997.27
2018-06-05T09:07:54.362Z,997.26
2018-06-05T09:09:15.520Z,997.27
2018-06-05T09:09:54.390Z,997.28
2018-06-05T09:10:55.077Z,997.28
2018-06-05T09:11:54.384Z,997.29
2018-06-05T09:12:54.382Z,997.31
2018-06-05T09:13:55.385Z,997.29
2018-06-05T09:15:15.404Z,997.25
2018-06-05T09:15:54.415Z,997.25
2018-06-05T09:16:54.396Z,997.29
2018-06-05T09:17:54.427Z,997.28
2018-06-05T09:18:54.577Z,997.28
2018-06-05T09:19:54.432Z,997.35
2018-06-05T09:21:15.430Z,997.33
2018-06-05T09:21:54.422Z,997.33
2018-06-05T09:22:54.421Z,997.33
2018-06-05T09:23:55.400Z,997.32
2018-06-05T09:24:54.432Z,997.34
2018-06-05T09:25:54.664Z,997.35
2018-06-05T09:27:15.463Z,997.34
2018-06-05T09:27:55.284Z,997.31
2018-06-05T09:28:54.489Z,997.32
2018-06-05T09:29:54.448Z,997.36
2018-06-05T09:30:54.668Z,997.35
2018-06-05T09:31:54.455Z,997.36
2018-06-05T09:33:15.472Z,997.39
2018-06-05T09:33:55.054Z,997.39
2018-06-05T09:34:54.478Z,997.38
2018-06-05T09:35:54.479Z,997.39
2018-06-05T09:36:54.489Z,997.39
2018-06-05T09:37:54.622Z,997.43
2018-06-05T09:39:15.570Z,997.47
2018-06-05T09:39:54.493Z,997.46
2018-06-05T09:40:54.496Z,997.41
2018-06-05T09:41:54.684Z,997.45
2018-06-05T09:42:54.528Z,997.45
2018-06-05T09:43:54.509Z,997.48
2018-06-05T09:45:15.525Z,997.45
2018-06-05T09:45:54.536Z,997.46
2018-06-05T09:46:54.836Z,997.47
2018-06-05T09:47:54.566Z,997.46
2018-06-05T09:48:54.549Z,997.48
2018-06-05T09:49:54.573Z,997.49
2018-06-05T09:51:15.559Z,997.43
2018-06-05T09:51:54.546Z,997.47
2018-06-05T09:52:54.760Z,997.49
2018-06-05T09:53:54.550Z,997.49
2018-06-05T09:54:54.556Z,997.48
2018-06-05T09:55:54.555Z,997.46
2018-06-05T09:57:15.608Z,997.47
2018-06-05T09:57:54.603Z,997.50
2018-06-05T09:58:54.584Z,997.51
2018-06-05T09:59:55.230Z,997.49
2018-06-05T10:00:54.579Z,997.51
2018-06-05T10:01:54.581Z,997.50
2018-06-05T10:03:15.607Z,997.50
2018-06-05T10:03:55.190Z,997.49
2018-06-05T10:04:56.909Z,997.49
2018-06-05T10:05:54.603Z,997.52
2018-06-05T10:06:54.609Z,997.50
2018-06-05T10:07:54.642Z,997.51
2018-06-05T10:09:15.673Z,997.50
2018-06-05T10:09:54.613Z,997.51
2018-06-05T10:10:54.610Z,997.50
2018-06-05T10:11:54.615Z,997.47
2018-06-05T10:12:54.633Z,997.47
2018-06-05T10:13:54.640Z,997.44
2018-06-05T10:15:15.662Z,997.45
2018-06-05T10:15:54.634Z,997.47
2018-06-05T10:16:54.640Z,997.48
2018-06-05T10:17:54.703Z,997.46
2018-06-05T10:18:54.671Z,997.48
2018-06-05T10:19:54.647Z,997.42
2018-06-05T10:21:15.684Z,997.45
2018-06-05T10:21:54.657Z,997.45
2018-06-05T10:22:54.679Z,997.43
2018-06-05T10:23:54.678Z,997.41
2018-06-05T10:24:54.682Z,997.44
2018-06-05T10:25:54.671Z,997.44
2018-06-05T10:27:15.709Z,997.43
2018-06-05T10:27:54.736Z,997.41
2018-06-05T10:28:54.692Z,997.40
2018-06-05T10:29:54.706Z,997.38
2018-06-05T10:30:54.709Z,997.41
2018-06-05T10:31:54.703Z,997.37
2018-06-05T10:33:15.710Z,997.34
2018-06-05T10:33:54.739Z,997.34
2018-06-05T10:34:54.725Z,997.38
2018-06-05T10:35:54.727Z,997.34
2018-06-05T10:36:54.720Z,997.32
2018-06-05T10:37:54.756Z,997.30
2018-06-05T10:39:15.769Z,997.31
2018-06-05T10:39:54.750Z,997.28
2018-06-05T10:40:54.740Z,997.29
2018-06-05T10:41:54.758Z,997.25
2018-06-05T10:42:54.788Z,997.26
2018-06-05T10:43:54.780Z,997.28
2018-06-05T10:45:16.831Z,997.25
2018-06-05T10:45:54.764Z,997.32
2018-06-05T10:46:54.767Z,997.33
2018-06-05T10:47:54.781Z,997.32
2018-06-05T10:48:54.772Z,997.34
2018-06-05T10:49:54.798Z,997.32
2018-06-05T10:51:15.796Z,997.28
2018-06-05T10:51:54.792Z,997.30
2018-06-05T10:52:54.793Z,997.31
2018-06-05T10:53:54.799Z,997.30
2018-06-05T10:54:55.306Z,997.30
2018-06-05T10:55:54.805Z,997.30
2018-06-05T10:57:15.854Z,997.30
2018-06-05T10:57:54.813Z,997.33
2018-06-05T10:58:55.059Z,997.30
2018-06-05T10:59:54.823Z,997.33
2018-06-05T11:00:54.838Z,997.31
2018-06-05T11:01:54.845Z,997.32
2018-06-05T11:03:16.145Z,997.27
2018-06-05T11:03:54.849Z,997.32
2018-06-05T11:04:55.896Z,997.35
2018-06-05T11:05:54.884Z,997.31
2018-06-05T11:06:54.865Z,997.34
2018-06-05T11:07:54.868Z,997.31
2018-06-05T11:09:15.984Z,997.27
2018-06-05T11:09:54.873Z,997.29
2018-06-05T11:10:54.898Z,997.28
2018-06-05T11:11:54.907Z,997.22
2018-06-05T11:12:54.892Z,997.25
2018-06-05T11:13:54.893Z,997.25
2018-06-05T11:15:15.920Z,997.23
2018-06-05T11:15:54.901Z,997.25
2018-06-05T11:16:54.966Z,997.25
2018-06-05T11:17:54.992Z,997.26
2018-06-05T11:18:54.939Z,997.28
2018-06-05T11:19:54.937Z,997.26
2018-06-05T11:21:15.935Z,997.24
2018-06-05T11:21:54.960Z,997.25
2018-06-05T11:22:54.951Z,997.25
2018-06-05T11:23:54.948Z,997.27
2018-06-05T11:24:54.953Z,997.24
2018-06-05T11:25:54.972Z,997.18
2018-06-05T11:27:15.975Z,997.21
2018-06-05T11:27:54.985Z,997.17
2018-06-05T11:28:54.968Z,997.19
2018-06-05T11:29:54.974Z,997.15
2018-06-05T11:30:54.970Z,997.15
2018-06-05T11:31:54.985Z,997.11
2018-06-05T11:33:16.928Z,997.14
2018-06-05T11:33:56.319Z,997.13
2018-06-05T11:34:54.989Z,997.11
2018-06-05T11:35:54.998Z,997.09
2018-06-05T11:36:55.037Z,997.09
2018-06-05T11:37:55.004Z,997.11
2018-06-05T11:39:16.024Z,997.11
2018-06-05T11:39:55.038Z,997.10
2018-06-05T11:40:55.031Z,997.15
2018-06-05T11:41:55.061Z,997.11
2018-06-05T11:42:55.059Z,997.15
2018-06-05T11:43:55.036Z,997.07
2018-06-05T11:45:16.072Z,997.11
2018-06-05T11:45:55.051Z,997.14
2018-06-05T11:46:55.124Z,997.05
2018-06-05T11:47:55.069Z,997.09
2018-06-05T11:48:55.058Z,997.12
2018-06-05T11:49:55.093Z,997.09
2018-06-05T11:51:16.080Z,997.11
2018-06-05T11:51:55.080Z,997.10
2018-06-05T11:52:55.073Z,997.14
2018-06-05T11:53:55.094Z,997.11
2018-06-05T11:54:55.098Z,997.13
2018-06-05T11:55:55.090Z,997.10
2018-06-05T11:57:16.117Z,997.09
2018-06-05T11:57:55.104Z,997.12
2018-06-05T11:58:55.109Z,997.07
2018-06-05T11:59:55.144Z,997.06
2018-06-05T12:00:55.191Z,997.04
2018-06-05T12:01:55.505Z,997.06
2018-06-05T12:03:16.135Z,997.00
2018-06-05T12:03:55.127Z,996.98
2018-06-05T12:04:55.132Z,997.00
2018-06-05T12:05:55.271Z,996.94
2018-06-05T12:06:55.142Z,996.96
2018-06-05T12:07:55.268Z,997.01
2018-06-05T12:09:16.165Z,996.95
2018-06-05T12:09:55.160Z,996.93
2018-06-05T12:10:55.256Z,996.93
2018-06-05T12:11:55.197Z,996.90
2018-06-05T12:12:55.430Z,996.90
2018-06-05T12:13:55.180Z,996.91
2018-06-05T12:15:16.199Z,996.89
2018-06-05T12:15:55.204Z,996.87
2018-06-05T12:16:55.302Z,996.87
2018-06-05T12:17:55.207Z,996.86
2018-06-05T12:18:55.219Z,996.85
2018-06-05T12:19:55.210Z,996.87
2018-06-05T12:21:16.232Z,996.84
2018-06-05T12:21:55.236Z,996.84
2018-06-05T12:22:55.244Z,996.84
2018-06-05T12:23:55.243Z,996.82
2018-06-05T12:24:55.245Z,996.85
2018-06-05T12:25:55.255Z,996.79
2018-06-05T12:27:16.959Z,996.84
2018-06-05T12:27:56.217Z,996.81
2018-06-05T12:28:55.505Z,996.88